White Pine, MI

2:59 PM EST on March 04, 2015 (GMT -0500)
Gogebic-Iron County | Change Station
CLOSE
Current Station
Airport
Location: Ironwood,
Elevation: 1230 ft
Nearby Weather Stations

Elev 1230 ft 46.53 °N, 90.13 °W | Updated 4 minutes ago

Overcast
Overcast
3 °F
Feels Like -16 °F
N
17
Wind Variable Wind from WNW
Gusts 22 mph

Today
High -- | Low -- °F
--% Chance of Precip.
Yesterday
High -- | Low -- °F
Precip. -- in
7:32 AM 6:48 PM
Waxing Gibbous, 99% visible
Pressure 30.05 in
Visibility 10.0 miles
Clouds Few 1700 ft
Scattered Clouds 2600 ft
Mostly Cloudy 3400 ft
Windchill -16 °F
Dew Point -8 °F
Humidity 61%
Rainfall 0.00 in
Snow Depth Not available.
UV 2 out of 12
Pollen .10 out of 12
Air Quality Not available.
Flu Activity Not available.
METAR KIWD 041955Z AUTO 29015G19KT 10SM FEW017 SCT026 BKN034 M16/M22 A3005 RMK AO1

More Conditions Fewer Conditions

Pressure 30.05 in
Visibility 10.0 miles
Clouds Few 1700 ft
Scattered Clouds 2600 ft
Mostly Cloudy 3400 ft
Windchill -16 °F
Dew Point -8 °F
Humidity 61%
Rainfall 0.00 in
Snow Depth Not available.
UV 2 out of 12
Pollen .10 out of 12
Air Quality Not available.
Flu Activity Not available.
METAR KIWD 041955Z AUTO 29015G19KT 10SM FEW017 SCT026 BKN034 M16/M22 A3005 RMK AO1

More Conditions Fewer Conditions

10-Day Weather Forecast

Almanac

Astronomy

Mar. 04, 2015 Rise Set
Actual Time
Civil Twilight
Nautical Twilight
Astronomical Twilight
Moon
Length of Visible Light
Length of Day
Tomorrow will be .
, % of the Moon is Illuminated

Today's Extremes

State Highs State Lows

Community

WunderPhotos

Upload Photos

1,802,561 photos uploaded!

WunderBlogs® & News

Nearby

Air Quality

  Air Quality AQ Index Pollutant
Not available.

Snow Depth

Station Depth Elevation

Earthquake Activity

City Distance Mag. Time & Date
Minimum magnitude displayed is 2.5.

Coastal Water Temperatures

Place Temperature

Nearby Weather Stations